createdAt,value
2023-02-15T00:04:59.759Z,98.70
2023-02-15T00:10:01.518Z,98.58
2023-02-15T00:15:05.092Z,98.76
2023-02-15T00:20:07.828Z,100.00
2023-02-15T00:25:09.600Z,100.00
2023-02-15T00:30:13.794Z,100.00
2023-02-15T00:35:15.687Z,100.00
2023-02-15T00:40:17.634Z,100.00
2023-02-15T00:45:22.198Z,100.00
2023-02-15T00:50:24.010Z,100.00
2023-02-15T00:55:25.756Z,100.00
2023-02-15T01:00:28.806Z,100.00
2023-02-15T01:05:33.288Z,100.00
2023-02-15T01:10:35.314Z,100.00
2023-02-15T01:15:38.421Z,100.00
2023-02-15T01:20:42.003Z,100.00
2023-02-15T01:25:43.730Z,100.00
2023-02-15T01:30:47.597Z,100.00
2023-02-15T01:35:57.185Z,100.00
2023-02-15T01:41:18.908Z,100.00
2023-02-15T01:46:24.479Z,100.00
2023-02-15T01:51:27.535Z,99.24
2023-02-15T01:56:34.394Z,99.42
2023-02-15T02:01:37.631Z,99.11
2023-02-15T02:06:39.378Z,98.48
2023-02-15T02:11:41.751Z,98.63
2023-02-15T02:16:48.260Z,99.40
2023-02-15T02:22:03.355Z,98.42
2023-02-15T02:27:30.007Z,98.39
2023-02-15T02:38:11.140Z,100.00
2023-02-15T02:43:17.170Z,100.00
2023-02-15T02:48:21.765Z,99.50
2023-02-15T02:53:24.554Z,98.46
2023-02-15T02:58:27.787Z,98.32
2023-02-15T03:03:32.929Z,97.07
2023-02-15T03:08:36.769Z,98.06
2023-02-15T03:13:38.629Z,98.23
2023-02-15T03:18:45.334Z,97.33
2023-02-15T03:23:47.116Z,97.32
2023-02-15T03:28:49.055Z,97.40
2023-02-15T03:33:54.460Z,97.05
2023-02-15T03:39:00.691Z,97.07
2023-02-15T03:44:05.561Z,98.06
2023-02-15T03:49:09.593Z,99.12
2023-02-15T03:54:13.499Z,99.61
2023-02-15T03:59:33.815Z,98.71
2023-02-15T04:04:37.998Z,98.67
2023-02-15T04:09:58.381Z,98.05
2023-02-15T04:15:18.616Z,98.73
2023-02-15T04:20:40.336Z,99.59
2023-02-15T04:25:42.019Z,98.23
2023-02-15T04:30:43.746Z,97.49
2023-02-15T04:35:46.771Z,97.68
2023-02-15T04:40:50.595Z,96.28
2023-02-15T04:45:52.471Z,96.81
2023-02-15T04:50:55.560Z,97.78
2023-02-15T04:55:57.245Z,98.47
2023-02-15T05:00:59.059Z,99.04
2023-02-15T05:06:02.427Z,99.07
2023-02-15T05:11:04.364Z,98.67
2023-02-15T05:16:06.062Z,98.74
2023-02-15T05:21:09.145Z,98.66
2023-02-15T05:26:29.838Z,97.46
2023-02-15T05:31:31.832Z,96.99
2023-02-15T05:36:35.092Z,96.74
2023-02-15T05:41:36.842Z,98.04
2023-02-15T05:46:38.621Z,98.02
2023-02-15T05:51:41.662Z,97.58
2023-02-15T05:56:43.403Z,98.12
2023-02-15T06:01:45.189Z,99.04
2023-02-15T06:06:48.309Z,96.84
2023-02-15T06:11:50.063Z,96.02
2023-02-15T06:16:51.857Z,96.25
2023-02-15T06:21:54.956Z,96.69
2023-02-15T06:26:56.698Z,96.26
2023-02-15T06:31:58.499Z,96.19
2023-02-15T06:37:01.558Z,96.01
2023-02-15T06:42:03.567Z,96.02
2023-02-15T06:47:05.435Z,95.98
2023-02-15T06:52:08.641Z,95.60
2023-02-15T06:57:10.585Z,95.17
2023-02-15T07:02:12.445Z,95.12
2023-02-15T07:07:15.460Z,95.30
2023-02-15T07:12:35.667Z,93.83
2023-02-15T07:17:37.518Z,92.06
2023-02-15T07:22:40.623Z,92.80
2023-02-15T07:27:42.402Z,90.81
2023-02-15T07:33:05.123Z,89.57
2023-02-15T07:38:08.648Z,89.10
2023-02-15T07:43:10.349Z,89.25
2023-02-15T07:48:12.012Z,88.16
2023-02-15T07:53:15.133Z,88.30
2023-02-15T07:58:16.850Z,88.02
2023-02-15T08:03:18.679Z,88.56
2023-02-15T08:08:31.111Z,87.32
2023-02-15T08:13:32.896Z,84.95
2023-02-15T08:18:35.281Z,58.79
2023-02-15T08:23:38.439Z,45.41
2023-02-15T08:28:40.298Z,39.95
2023-02-15T08:33:42.874Z,35.15
2023-02-15T08:38:45.885Z,32.40
2023-02-15T08:43:48.307Z,30.40
2023-02-15T08:48:50.114Z,29.36
2023-02-15T08:53:53.880Z,28.14
2023-02-15T08:58:55.617Z,26.97
2023-02-15T09:03:58.048Z,26.79
2023-02-15T09:09:01.049Z,26.25
2023-02-15T09:14:04.287Z,26.31
2023-02-15T09:19:06.099Z,25.59
2023-02-15T09:24:10.989Z,25.15
2023-02-15T09:29:12.942Z,25.28
2023-02-15T09:34:16.906Z,24.51
2023-02-15T09:39:20.969Z,24.40
2023-02-15T09:44:27.347Z,24.68
2023-02-15T09:49:32.545Z,24.32
2023-02-15T09:54:42.873Z,23.43
2023-02-15T09:59:47.254Z,24.28
2023-02-15T10:04:55.697Z,23.42
2023-02-15T10:10:07.626Z,23.05
2023-02-15T10:15:21.205Z,23.37
2023-02-15T10:20:27.082Z,22.80
2023-02-15T10:25:35.248Z,21.70
2023-02-15T10:30:42.264Z,22.54
2023-02-15T10:35:46.706Z,23.90
2023-02-15T10:40:57.360Z,24.22
2023-02-15T10:46:02.929Z,24.77
2023-02-15T10:51:05.656Z,26.34
2023-02-15T10:56:13.230Z,25.44
2023-02-15T11:01:20.751Z,26.66
2023-02-15T11:06:22.669Z,26.76
2023-02-15T11:11:27.616Z,26.30
2023-02-15T11:16:31.037Z,26.90
2023-02-15T11:21:33.996Z,29.35
2023-02-15T11:26:39.182Z,34.80
2023-02-15T11:31:44.396Z,40.16
2023-02-15T11:36:46.209Z,40.84
2023-02-15T11:41:53.019Z,41.80
2023-02-15T11:46:54.745Z,43.83
2023-02-15T11:51:56.437Z,45.12
2023-02-15T11:57:00.541Z,45.46
2023-02-15T12:02:02.242Z,45.89
2023-02-15T12:07:05.744Z,46.25
2023-02-15T12:12:25.353Z,45.68
2023-02-15T12:17:27.828Z,45.97
2023-02-15T12:22:30.579Z,46.19
2023-02-15T12:27:34.190Z,45.50
2023-02-15T12:32:36.683Z,44.75
2023-02-15T12:37:38.394Z,45.85
2023-02-15T12:42:45.670Z,44.96
2023-02-15T12:47:48.624Z,44.97
2023-02-15T12:52:51.377Z,44.89
2023-02-15T12:58:16.990Z,46.03
2023-02-15T13:03:19.788Z,46.36
2023-02-15T13:08:22.438Z,45.63
2023-02-15T13:13:27.214Z,45.84
2023-02-15T13:18:31.457Z,45.99
2023-02-15T13:23:34.779Z,46.08
2023-02-15T13:28:41.858Z,46.16
2023-02-15T13:33:46.356Z,46.32
2023-02-15T13:38:52.763Z,46.98
2023-02-15T13:44:00.139Z,47.04
2023-02-15T13:49:10.641Z,46.20
2023-02-15T13:54:33.229Z,47.50
2023-02-15T13:59:45.771Z,47.82
2023-02-15T14:04:56.876Z,48.15
2023-02-15T14:10:03.959Z,48.15
2023-02-15T14:15:22.844Z,47.12
2023-02-15T14:20:26.888Z,47.99
2023-02-15T14:25:30.373Z,48.92
2023-02-15T14:30:35.139Z,49.33
2023-02-15T14:35:38.100Z,49.84
2023-02-15T14:41:02.266Z,49.75
2023-02-15T14:46:09.419Z,49.60
2023-02-15T14:51:11.200Z,50.46
2023-02-15T14:56:30.983Z,51.53
2023-02-15T15:01:34.488Z,52.46
2023-02-15T15:06:37.726Z,52.71
2023-02-15T15:11:44.198Z,53.21
2023-02-15T15:16:51.746Z,54.11
2023-02-15T15:21:56.991Z,55.73
2023-02-15T15:27:31.981Z,56.60
2023-02-15T15:32:34.997Z,57.23
2023-02-15T15:37:47.774Z,58.08
2023-02-15T15:42:52.322Z,58.09
2023-02-15T15:48:07.098Z,59.23
2023-02-15T15:53:13.297Z,59.66
2023-02-15T15:58:16.575Z,60.79
2023-02-15T16:03:23.809Z,62.88
2023-02-15T16:08:30.012Z,63.05
2023-02-15T16:13:31.710Z,62.13
2023-02-15T16:18:37.103Z,62.34
2023-02-15T16:24:00.648Z,62.80
2023-02-15T16:29:02.454Z,63.04
2023-02-15T16:34:10.477Z,62.31
2023-02-15T16:39:18.818Z,62.11
2023-02-15T16:44:20.668Z,62.87
2023-02-15T16:49:24.213Z,62.50
2023-02-15T16:54:26.285Z,62.01
2023-02-15T16:59:32.339Z,63.34
2023-02-15T17:04:38.866Z,63.18
2023-02-15T17:09:43.118Z,64.13
2023-02-15T17:14:45.055Z,64.63
2023-02-15T17:19:50.347Z,64.48
2023-02-15T17:24:58.821Z,65.41
2023-02-15T17:30:01.701Z,65.26
2023-02-15T17:35:15.896Z,66.75
2023-02-15T17:40:23.037Z,67.16
2023-02-15T17:45:26.666Z,67.83
2023-02-15T17:50:29.865Z,68.59
2023-02-15T17:55:41.276Z,68.84
2023-02-15T18:01:02.960Z,69.06
2023-02-15T18:06:25.597Z,70.33
2023-02-15T18:11:39.568Z,70.96
2023-02-15T18:16:44.486Z,71.89
2023-02-15T18:21:47.598Z,73.21
2023-02-15T18:26:49.531Z,73.56
2023-02-15T18:31:52.971Z,73.31
2023-02-15T18:36:56.350Z,73.73
2023-02-15T18:41:58.019Z,74.44
2023-02-15T18:46:59.724Z,75.11
2023-02-15T18:52:02.953Z,75.03
2023-02-15T18:57:04.642Z,75.06
2023-02-15T19:02:11.701Z,74.74
2023-02-15T19:07:16.841Z,74.38
2023-02-15T19:12:19.652Z,74.05
2023-02-15T19:17:21.662Z,73.79
2023-02-15T19:22:26.317Z,73.73
2023-02-15T19:27:31.733Z,74.97
2023-02-15T19:32:33.606Z,75.31
2023-02-15T19:37:38.144Z,75.80
2023-02-15T19:42:39.844Z,75.65
2023-02-15T19:47:43.238Z,75.43
2023-02-15T19:52:46.455Z,75.33
2023-02-15T19:57:48.830Z,75.23
2023-02-15T20:02:50.594Z,74.29
2023-02-15T20:07:53.592Z,73.89
2023-02-15T20:12:55.464Z,74.77
2023-02-15T20:17:57.982Z,74.69
2023-02-15T20:23:01.064Z,73.91
2023-02-15T20:28:02.851Z,74.24
2023-02-15T20:33:04.617Z,74.92
2023-02-15T20:38:07.915Z,74.36
2023-02-15T20:43:10.798Z,73.42
2023-02-15T20:48:12.625Z,73.30
2023-02-15T20:53:15.756Z,72.96
2023-02-15T20:58:20.735Z,73.16
2023-02-15T21:03:26.375Z,72.98
2023-02-15T21:08:29.467Z,72.84
2023-02-15T21:13:32.163Z,73.14
2023-02-15T21:18:34.202Z,73.61
2023-02-15T21:23:38.131Z,73.26
2023-02-15T21:28:41.299Z,73.77
2023-02-15T21:33:44.311Z,73.95
2023-02-15T21:38:47.514Z,74.29
2023-02-15T21:44:07.746Z,73.64
2023-02-15T21:49:10.728Z,73.66
2023-02-15T21:54:14.713Z,74.23
2023-02-15T21:59:18.167Z,73.99
2023-02-15T22:04:21.531Z,73.89
2023-02-15T22:09:26.572Z,73.92
2023-02-15T22:14:35.333Z,73.99
2023-02-15T22:19:37.020Z,74.03
2023-02-15T22:24:40.265Z,74.61
2023-02-15T22:29:41.976Z,75.37
2023-02-15T22:34:43.717Z,75.68
2023-02-15T22:39:46.824Z,74.87
2023-02-15T22:44:48.585Z,74.86
2023-02-15T22:49:50.321Z,74.49
2023-02-15T22:54:53.346Z,74.54
2023-02-15T22:59:55.021Z,74.32
2023-02-15T23:04:56.725Z,75.05
2023-02-15T23:09:59.779Z,75.33
2023-02-15T23:15:01.504Z,74.46
2023-02-15T23:20:03.541Z,74.53
2023-02-15T23:25:08.721Z,74.09
2023-02-15T23:30:13.071Z,73.70
2023-02-15T23:35:15.300Z,74.26
2023-02-15T23:40:38.029Z,74.29
2023-02-15T23:45:39.812Z,73.88
2023-02-15T23:50:41.522Z,74.60
2023-02-15T23:55:44.529Z,74.21
